Robbinsdale, Minnesota
Current Conditions -  °F | °C
As of 6:53 AM on Thursday 27 Nov 2014 (Local Time) from KMIC Reporting Station
Clear Clear  
Wind Chill: -13°   Ceiling: Unl
Heat Index: -1°   Visibility: 10mi
Dew Point: -7°   Wind: 6mph
Humidity: 75%   Direction: 320°NW
Pressure: 30.49"   Gusts: NA
Location:  45.0089°N, 93.3395°W
Report Text: KMIC 271253Z 32005KT 10SM CLR M18/M22 A3049 RMK AO2 SLP345 T11831217
Loading
Personal Weather Stations






























Interactive Weather Map New forecast layout! Learn more

10-Day Weather Forecast

Advertisements
Track Severe Weather on mobile